Weather at Port Hawkesbury Airport

Public forecast

Using degrees Celsius for public forecast. Weather courtesy of forecast.io.

Current aviation weather report (METAR) for Port Hawkesbury Airport

Report is more than 2 hours old.

2024/06/24 21:19 (retrieved 3 hours ago)

CYPD 242119Z AUTO 21005KT 170V230 4SM BR BKN003 BKN007 OVC020 19/19 A2958 RMK LTNG DIST NE PCPN 15MM PAST HR SLP017 DENSITY ALT 1300FT

Closest aviation forecast (TAF) to Port Hawkesbury Airport

Closest forecast is Sydney / J.A. Douglas McCurdy Airport, 62.9 nm (116.5 km) ENE.

2024/06/24 19:48 Ammendment (retrieved 4 hours ago)

TAF AMD TAF AMD CYQY 241945Z 2419/2506 23012G22KT P6SM OVC012 TEMPO 2419/2421 VRB20G30KT 2SM +TSRA BR OVC008CB FM242100 23012G22KT P6SM OVC012 TEMPO 2421/2422 5SM -SHRA BR OVC008 PROB30 2421/2422 VRB20G30KT 2SM +TSRA BR OVC008CB FM242300 24008KT P6SM OVC008 TEMPO 2423/2505 5SM -SHRA BR OVC005 BECMG 2500/2502 06008KT FM250500 06010KT 2SM -RA BR OVC003 PROB30 2505/2506 1/2SM +TSRA FG BKN002 OVC008CB RMK NXT FCST BY 250000Z